createdAt,value
2023-02-16T00:00:19.375Z,100173.37
2023-02-16T00:01:23.523Z,100173.98
2023-02-16T00:02:27.772Z,100170.06
2023-02-16T00:03:32.188Z,100180.75
2023-02-16T00:04:36.411Z,100169.47
2023-02-16T00:05:40.568Z,100163.36
2023-02-16T00:06:44.699Z,100170.55
2023-02-16T00:07:48.815Z,100168.72
2023-02-16T00:08:52.965Z,100172.47
2023-02-16T00:09:57.090Z,100174.73
2023-02-16T00:11:01.629Z,100172.16
2023-02-16T00:12:06.322Z,100163.38
2023-02-16T00:13:10.648Z,100170.16
2023-02-16T00:14:14.967Z,100160.7
2023-02-16T00:15:19.095Z,100168.58
2023-02-16T00:16:23.390Z,100170.73
2023-02-16T00:17:27.665Z,100159.02
2023-02-16T00:18:31.786Z,100168.58
2023-02-16T00:19:35.975Z,100164.21
2023-02-16T00:20:40.205Z,100158.95
2023-02-16T00:21:44.316Z,100152.59
2023-02-16T00:22:48.463Z,100158.54
2023-02-16T00:23:52.597Z,100156.75
2023-02-16T00:24:56.783Z,100156.75
2023-02-16T00:26:00.916Z,100145.34
2023-02-16T00:27:05.242Z,100150.98
2023-02-16T00:28:09.375Z,100146.98
2023-02-16T00:29:13.511Z,100144.9
2023-02-16T00:30:17.767Z,100148.92
2023-02-16T00:31:22.308Z,100147.57
2023-02-16T00:32:26.874Z,100145.58
2023-02-16T00:33:31.172Z,100139.45
2023-02-16T00:34:35.439Z,100147.57
2023-02-16T00:35:39.604Z,100142.45
2023-02-16T00:36:43.739Z,100148.91
2023-02-16T00:37:47.866Z,100144.48
2023-02-16T00:38:51.988Z,100140.8
2023-02-16T00:39:56.159Z,100136.34
2023-02-16T00:41:00.561Z,100140.97
2023-02-16T00:42:05.449Z,100138.77
2023-02-16T00:43:09.597Z,100136.44
2023-02-16T00:44:13.722Z,100133.68
2023-02-16T00:45:17.863Z,100128.08
2023-02-16T00:46:22.205Z,100130
2023-02-16T00:47:26.507Z,100127.5
2023-02-16T00:48:30.671Z,100131
2023-02-16T00:49:34.840Z,100136.53
2023-02-16T00:50:39.109Z,100128.25
2023-02-16T00:51:43.258Z,100129.41
2023-02-16T00:52:47.406Z,100123.41
2023-02-16T00:53:51.557Z,100121.34
2023-02-16T00:54:55.692Z,100121.58
2023-02-16T00:55:59.818Z,100129.83
2023-02-16T00:57:03.973Z,100125.74
2023-02-16T00:58:08.132Z,100133.37
2023-02-16T00:59:12.283Z,100128.94
2023-02-16T01:00:16.433Z,100124.06
2023-02-16T01:01:20.644Z,100123.65
2023-02-16T01:02:24.802Z,100122.47
2023-02-16T01:03:28.918Z,100123.41
2023-02-16T01:04:33.186Z,100120.72
2023-02-16T01:05:37.409Z,100112.81
2023-02-16T01:06:41.570Z,100111.78
2023-02-16T01:07:45.733Z,100106.28
2023-02-16T01:08:49.901Z,100113.88
2023-02-16T01:09:54.019Z,100110.38
2023-02-16T01:10:58.180Z,100107.36
2023-02-16T01:12:02.308Z,100101.31
2023-02-16T01:13:06.462Z,100101.41
2023-02-16T01:14:10.585Z,100100.14
2023-02-16T01:15:14.765Z,100100.99
2023-02-16T01:16:19.099Z,100097.91
2023-02-16T01:17:23.299Z,100101.85
2023-02-16T01:18:27.451Z,100101.34
2023-02-16T01:19:31.583Z,100098.66
2023-02-16T01:20:35.696Z,100094.75
2023-02-16T01:21:39.856Z,100084.78
2023-02-16T01:22:44.075Z,100087.6
2023-02-16T01:23:48.197Z,100092.23
2023-02-16T01:24:52.352Z,100088.22
2023-02-16T01:25:56.533Z,100092.41
2023-02-16T01:27:00.683Z,100082.93
2023-02-16T01:28:04.836Z,100083.03
2023-02-16T01:29:08.964Z,100085.7
2023-02-16T01:30:13.174Z,100084.3
2023-02-16T01:31:17.711Z,100090.3
2023-02-16T01:32:22.507Z,100094.94
2023-02-16T01:33:26.868Z,100087.8
2023-02-16T01:34:31.001Z,100074.56
2023-02-16T01:35:35.138Z,100090.23
2023-02-16T01:36:39.265Z,100091.09
2023-02-16T01:37:43.405Z,100090.16
2023-02-16T01:38:47.566Z,100092.74
2023-02-16T01:39:51.696Z,100088.24
2023-02-16T01:40:55.824Z,100088.58
2023-02-16T01:41:59.977Z,100083.03
2023-02-16T01:43:04.106Z,100081.95
2023-02-16T01:44:08.233Z,100089.87
2023-02-16T01:45:12.721Z,100082.17
2023-02-16T01:46:16.994Z,100082.97
2023-02-16T01:47:21.245Z,100083.95
2023-02-16T01:48:25.366Z,100077.59
2023-02-16T01:49:29.513Z,100080.23
2023-02-16T01:50:33.645Z,100078.97
2023-02-16T01:51:37.816Z,100072
2023-02-16T01:52:41.941Z,100075.81
2023-02-16T01:53:46.115Z,100070.8
2023-02-16T01:54:50.260Z,100065.47
2023-02-16T01:55:54.382Z,100063.17
2023-02-16T01:56:58.492Z,100061.55
2023-02-16T01:58:02.680Z,100067.22
2023-02-16T01:59:06.794Z,100064.02
2023-02-16T02:00:10.950Z,100064.5
2023-02-16T02:01:15.172Z,100067.73
2023-02-16T02:02:19.376Z,100062.2
2023-02-16T02:03:23.610Z,100066.46
2023-02-16T02:04:27.728Z,100064.13
2023-02-16T02:05:31.873Z,100058.89
2023-02-16T02:06:35.972Z,100056.17
2023-02-16T02:07:40.100Z,100042.46
2023-02-16T02:08:44.236Z,100055.14
2023-02-16T02:09:48.387Z,100048.02
2023-02-16T02:10:52.641Z,100042.14
2023-02-16T02:11:56.800Z,100044.48
2023-02-16T02:13:01.063Z,100038.77
2023-02-16T02:14:05.286Z,100045.42
2023-02-16T02:15:09.438Z,100036.21
2023-02-16T02:16:13.719Z,100042.36
2023-02-16T02:17:17.940Z,100040.13
2023-02-16T02:18:22.068Z,100033.83
2023-02-16T02:19:26.244Z,100036.98
2023-02-16T02:20:30.378Z,100032.32
2023-02-16T02:21:34.512Z,100036.47
2023-02-16T02:22:38.647Z,100035.88
2023-02-16T02:23:42.793Z,100039.45
2023-02-16T02:24:46.952Z,100042.84
2023-02-16T02:25:51.106Z,100047.75
2023-02-16T02:26:55.267Z,100046.16
2023-02-16T02:27:59.417Z,100048.74
2023-02-16T02:29:03.532Z,100049.26
2023-02-16T02:30:07.802Z,100050.37
2023-02-16T02:31:12.271Z,100051.02
2023-02-16T02:32:16.760Z,100047.4
2023-02-16T02:33:20.992Z,100046.52
2023-02-16T02:34:25.113Z,100046.39
2023-02-16T02:35:29.279Z,100046.81
2023-02-16T02:36:33.461Z,100052.41
2023-02-16T02:37:37.641Z,100049.08
2023-02-16T02:38:41.760Z,100042.52
2023-02-16T02:39:45.913Z,100044.04
2023-02-16T02:40:51.084Z,100039.37
2023-02-16T02:41:58.355Z,100055.99
2023-02-16T02:43:02.523Z,100059.39
2023-02-16T02:44:06.644Z,100052.92
2023-02-16T02:45:10.806Z,100050.01
2023-02-16T02:46:15.083Z,100054.67
2023-02-16T02:47:19.317Z,100054.8
2023-02-16T02:48:23.481Z,100052.48
2023-02-16T02:49:27.653Z,100054.5
2023-02-16T02:50:31.797Z,100057.42
2023-02-16T02:51:35.918Z,100050.77
2023-02-16T02:52:40.230Z,100045.23
2023-02-16T02:53:44.806Z,100047.56
2023-02-16T02:54:49.413Z,100054.75
2023-02-16T02:55:53.748Z,100050.83
2023-02-16T02:57:03.848Z,100040.69
2023-02-16T02:58:08.043Z,100031.34
2023-02-16T02:59:12.607Z,100041.66
2023-02-16T03:00:16.753Z,100038.59
2023-02-16T03:01:20.994Z,100040.97
2023-02-16T03:02:25.263Z,100045.28
2023-02-16T03:03:29.395Z,100049.55
2023-02-16T03:04:33.579Z,100043.05
2023-02-16T03:05:37.707Z,100057.07
2023-02-16T03:06:41.830Z,100055.55
2023-02-16T03:07:45.984Z,100053.15
2023-02-16T03:08:50.147Z,100055.86
2023-02-16T03:09:54.289Z,100057.61
2023-02-16T03:10:58.435Z,100057.95
2023-02-16T03:12:02.552Z,100061.63
2023-02-16T03:13:06.686Z,100057.49
2023-02-16T03:14:10.851Z,100055.22
2023-02-16T03:15:15.017Z,100064.09
2023-02-16T03:16:19.281Z,100066.35
2023-02-16T03:17:23.549Z,100066.42
2023-02-16T03:18:27.694Z,100060.36
2023-02-16T03:19:31.865Z,100062.87
2023-02-16T03:20:35.999Z,100068.29
2023-02-16T03:21:40.121Z,100058.2
2023-02-16T03:22:44.280Z,100072.45
2023-02-16T03:23:48.418Z,100068.59
2023-02-16T03:24:52.579Z,100061.7
2023-02-16T03:25:56.761Z,100067.02
2023-02-16T03:27:00.922Z,100068.05
2023-02-16T03:28:05.083Z,100053.11
2023-02-16T03:29:09.209Z,100067.59
2023-02-16T03:30:13.493Z,100061.11
2023-02-16T03:31:18.053Z,100065
2023-02-16T03:32:22.494Z,100065.59
2023-02-16T03:33:26.630Z,100073.25
2023-02-16T03:34:30.782Z,100071.7
2023-02-16T03:35:34.963Z,100070.13
2023-02-16T03:36:39.118Z,100069.04
2023-02-16T03:37:43.246Z,100070.38
2023-02-16T03:38:47.363Z,100064.06
2023-02-16T03:39:51.501Z,100066.09
2023-02-16T03:40:55.684Z,100059.19
2023-02-16T03:41:59.810Z,100060.71
2023-02-16T03:43:03.990Z,100051.78
2023-02-16T03:44:08.121Z,100052.47
2023-02-16T03:45:12.223Z,100048.96
2023-02-16T03:46:16.441Z,100041.61
2023-02-16T03:47:20.664Z,100053.92
2023-02-16T03:48:24.979Z,100051.41
2023-02-16T03:49:29.120Z,100051.28
2023-02-16T03:50:33.248Z,100061.15
2023-02-16T03:51:37.402Z,100050.56
2023-02-16T03:52:41.547Z,100050.98
2023-02-16T03:53:45.689Z,100050.98
2023-02-16T03:54:49.844Z,100058.2
2023-02-16T03:55:54.040Z,100051.74
2023-02-16T03:56:58.191Z,100046.83
2023-02-16T03:58:02.380Z,100050.27
2023-02-16T03:59:06.521Z,100048.8
2023-02-16T04:00:10.692Z,100042.38
2023-02-16T04:01:14.853Z,100050.9
2023-02-16T04:02:19.093Z,100054.64
2023-02-16T04:03:23.323Z,100054.41
2023-02-16T04:04:27.709Z,100050.48
2023-02-16T04:05:32.029Z,100042.25
2023-02-16T04:06:36.200Z,100045.34
2023-02-16T04:07:40.343Z,100049.5
2023-02-16T04:08:44.527Z,100049.59
2023-02-16T04:09:48.657Z,100051.53
2023-02-16T04:10:52.800Z,100053.8
2023-02-16T04:11:56.910Z,100049.88
2023-02-16T04:13:01.063Z,100051.63
2023-02-16T04:14:05.210Z,100053.56
2023-02-16T04:15:09.351Z,100058.27
2023-02-16T04:16:13.542Z,100051.19
2023-02-16T04:17:17.997Z,100051.19
2023-02-16T04:18:22.143Z,100050.58
2023-02-16T04:19:26.275Z,100052.36
2023-02-16T04:20:30.419Z,100052.37
2023-02-16T04:21:34.572Z,100053.46
2023-02-16T04:22:38.696Z,100049.34
2023-02-16T04:23:42.854Z,100047.94
2023-02-16T04:24:47.007Z,100050.44
2023-02-16T04:25:51.159Z,100054.94
2023-02-16T04:26:55.277Z,100048.38
2023-02-16T04:27:59.420Z,100052.17
2023-02-16T04:29:03.583Z,100045.77
2023-02-16T04:30:07.814Z,100048.11
2023-02-16T04:31:12.446Z,100046.78
2023-02-16T04:32:16.976Z,100049.14
2023-02-16T04:33:21.153Z,100032.97
2023-02-16T04:34:25.294Z,100036.95
2023-02-16T04:35:29.443Z,100040.09
2023-02-16T04:36:33.590Z,100030.52
2023-02-16T04:37:37.724Z,100038.16
2023-02-16T04:38:41.858Z,100034.34
2023-02-16T04:39:46.002Z,100033.34
2023-02-16T04:40:50.185Z,100034.92
2023-02-16T04:41:54.308Z,100031.59
2023-02-16T04:42:58.461Z,100026.51
2023-02-16T04:44:02.599Z,100032.42
2023-02-16T04:45:06.755Z,100028.45
2023-02-16T04:46:11.079Z,100022.97
2023-02-16T04:47:15.391Z,100024.08
2023-02-16T04:48:19.504Z,100022.9
2023-02-16T04:49:23.620Z,100023.19
2023-02-16T04:50:27.754Z,100028.5
2023-02-16T04:51:31.939Z,100028.52
2023-02-16T04:52:42.573Z,100024.23
2023-02-16T04:53:49.820Z,100019.1
2023-02-16T04:54:53.957Z,100014.14
2023-02-16T04:55:58.131Z,100032.47
2023-02-16T04:57:02.409Z,100032
2023-02-16T04:58:06.546Z,100038.13
2023-02-16T04:59:10.690Z,100027.63
2023-02-16T05:00:14.867Z,100032.52
2023-02-16T05:01:19.116Z,100033.81
2023-02-16T05:02:23.468Z,100035.44
2023-02-16T05:03:27.609Z,100038.83
2023-02-16T05:04:31.898Z,100034.69
2023-02-16T05:05:36.142Z,100032.7
2023-02-16T05:06:40.335Z,100035.9
2023-02-16T05:07:44.456Z,100032.8
2023-02-16T05:08:48.606Z,100036.63
2023-02-16T05:09:52.745Z,100038.59
2023-02-16T05:10:56.874Z,100038.02
2023-02-16T05:12:01.125Z,100036.77
2023-02-16T05:13:05.310Z,100029.78
2023-02-16T05:14:09.439Z,100030.6
2023-02-16T05:15:13.580Z,100033.91
2023-02-16T05:16:17.843Z,100035.25
2023-02-16T05:17:22.149Z,100026.63
2023-02-16T05:18:26.422Z,100017.05
2023-02-16T05:19:30.582Z,100021.2
2023-02-16T05:20:34.708Z,100018.7
2023-02-16T05:21:38.829Z,100020.55
2023-02-16T05:22:42.966Z,100021.63
2023-02-16T05:23:47.087Z,100017.48
2023-02-16T05:24:51.222Z,100009.27
2023-02-16T05:25:55.502Z,100021.34
2023-02-16T05:27:02.481Z,100009.94
2023-02-16T05:28:06.908Z,100020.39
2023-02-16T05:29:11.120Z,100019.63
2023-02-16T05:30:15.307Z,100008.84
2023-02-16T05:31:19.896Z,100003.45
2023-02-16T05:32:24.469Z,100017.41
2023-02-16T05:33:28.777Z,100017.17
2023-02-16T05:34:32.913Z,100011.44
2023-02-16T05:35:37.064Z,100001.77
2023-02-16T05:36:41.172Z,100013.89
2023-02-16T05:37:45.488Z,100019.33
2023-02-16T05:38:49.655Z,100017.91
2023-02-16T05:39:53.890Z,100013.73
2023-02-16T05:40:58.042Z,100025.03
2023-02-16T05:42:02.184Z,100019.42
2023-02-16T05:43:06.348Z,100012.43
2023-02-16T05:44:10.498Z,100020.53
2023-02-16T05:45:14.634Z,100021.13
2023-02-16T05:46:18.779Z,100022.98
2023-02-16T05:47:22.995Z,100012.19
2023-02-16T05:48:27.126Z,100018.07
2023-02-16T05:49:31.275Z,100013.81
2023-02-16T05:50:35.420Z,100023.77
2023-02-16T05:51:39.532Z,100021.03
2023-02-16T05:52:43.647Z,100023.61
2023-02-16T05:53:47.766Z,100028.56
2023-02-16T05:54:51.902Z,100029.15
2023-02-16T05:55:56.054Z,100027.91
2023-02-16T05:57:00.204Z,100031.11
2023-02-16T05:58:04.339Z,100020.19
2023-02-16T05:59:08.484Z,100034.48
2023-02-16T06:00:12.669Z,100029.3
2023-02-16T06:01:16.800Z,100032.05
2023-02-16T06:02:21.078Z,100031.67
2023-02-16T06:03:25.423Z,100025.97
2023-02-16T06:04:29.732Z,100023.97
2023-02-16T06:05:33.875Z,100021.98
2023-02-16T06:06:38.054Z,100029.98
2023-02-16T06:07:42.212Z,100029.1
2023-02-16T06:08:46.372Z,100030.14
2023-02-16T06:09:50.540Z,99978.35
2023-02-16T06:10:54.696Z,100033.87
2023-02-16T06:11:58.820Z,100029.95
2023-02-16T06:13:02.982Z,100024.19
2023-02-16T06:14:07.111Z,100032.81
2023-02-16T06:15:11.310Z,100026.8
2023-02-16T06:16:15.541Z,100032.98
2023-02-16T06:17:19.765Z,100029.66
2023-02-16T06:18:23.898Z,100027.91
2023-02-16T06:19:28.034Z,100029.31
2023-02-16T06:20:32.164Z,100030.86
2023-02-16T06:21:36.336Z,100034.88
2023-02-16T06:22:40.484Z,100028.19
2023-02-16T06:23:44.675Z,100031.03
2023-02-16T06:24:48.825Z,100024.09
2023-02-16T06:25:53.005Z,100032.86
2023-02-16T06:26:57.181Z,100032.03
2023-02-16T06:28:01.334Z,100016.58
2023-02-16T06:29:05.500Z,100025.2
2023-02-16T06:30:09.893Z,100035.81
2023-02-16T06:31:14.285Z,100027.88
2023-02-16T06:32:18.858Z,100031.07
2023-02-16T06:33:23.417Z,100030.63
2023-02-16T06:34:27.594Z,100031.97
2023-02-16T06:35:31.731Z,100028.64
2023-02-16T06:36:35.887Z,100031.42
2023-02-16T06:37:40.086Z,100025.23
2023-02-16T06:38:44.243Z,100027.27
2023-02-16T06:39:48.388Z,100018.5
2023-02-16T06:40:52.535Z,100022.08
2023-02-16T06:41:56.691Z,100026.09
2023-02-16T06:43:00.851Z,100027.51
2023-02-16T06:44:05.002Z,100019.61
2023-02-16T06:45:09.152Z,100027.68
2023-02-16T06:46:13.346Z,100032.38
2023-02-16T06:47:17.561Z,100034.89
2023-02-16T06:48:21.694Z,100034.99
2023-02-16T06:49:28.752Z,100027.47
2023-02-16T06:50:33.136Z,100035.69
2023-02-16T06:51:37.477Z,100038.84
2023-02-16T06:52:41.807Z,100032.15
2023-02-16T06:53:45.948Z,100036.02
2023-02-16T06:54:50.101Z,100035.61
2023-02-16T06:55:54.249Z,100035.38
2023-02-16T06:56:58.464Z,100032.28
2023-02-16T06:58:02.614Z,100038.64
2023-02-16T06:59:06.829Z,100039.91
2023-02-16T07:00:11.005Z,100040.49
2023-02-16T07:01:15.253Z,100048.67
2023-02-16T07:02:19.550Z,100043.31
2023-02-16T07:03:23.860Z,100048.77
2023-02-16T07:04:28.269Z,100044.75
2023-02-16T07:05:32.428Z,100045.99
2023-02-16T07:06:36.552Z,100046.5
2023-02-16T07:07:40.743Z,100041.91
2023-02-16T07:08:44.873Z,100043.24
2023-02-16T07:09:49.003Z,100044.75
2023-02-16T07:10:53.133Z,100050.11
2023-02-16T07:11:57.280Z,100040.56
2023-02-16T07:13:01.418Z,100046.27
2023-02-16T07:14:05.561Z,100054.3
2023-02-16T07:15:09.705Z,100052.45
2023-02-16T07:16:13.926Z,100055.23
2023-02-16T07:17:18.211Z,100051.28
2023-02-16T07:18:22.341Z,100047.22
2023-02-16T07:19:26.477Z,100050.05
2023-02-16T07:20:30.656Z,100038.53
2023-02-16T07:21:34.792Z,100041.63
2023-02-16T07:22:38.912Z,100043.1
2023-02-16T07:23:43.066Z,100046.61
2023-02-16T07:24:47.252Z,100042.86
2023-02-16T07:25:51.679Z,100050.73
2023-02-16T07:26:55.814Z,100038.36
2023-02-16T07:27:59.951Z,100044.09
2023-02-16T07:29:04.083Z,100036.27
2023-02-16T07:30:08.233Z,100044.09
2023-02-16T07:31:12.734Z,100041.45
2023-02-16T07:32:17.079Z,100046.37
2023-02-16T07:33:21.301Z,100048.8
2023-02-16T07:34:25.475Z,100049.73
2023-02-16T07:35:29.676Z,100047.98
2023-02-16T07:36:33.969Z,100036.61
2023-02-16T07:37:38.149Z,100044.41
2023-02-16T07:38:42.279Z,100050
2023-02-16T07:39:46.440Z,100043.58
2023-02-16T07:40:50.590Z,100048.15
2023-02-16T07:41:54.744Z,100050.03
2023-02-16T07:42:58.855Z,100054.6
2023-02-16T07:44:02.990Z,100048.66
2023-02-16T07:45:07.096Z,100050.17
2023-02-16T07:46:11.413Z,100051
2023-02-16T07:47:15.836Z,100052.34
2023-02-16T07:48:19.983Z,100045.36
2023-02-16T07:49:24.149Z,100046.67
2023-02-16T07:50:28.475Z,100047.42
2023-02-16T07:51:32.662Z,100049.1
2023-02-16T07:52:36.810Z,100046.84
2023-02-16T07:53:40.961Z,100046.59
2023-02-16T07:54:45.074Z,100039.76
2023-02-16T07:55:49.213Z,100043.36
2023-02-16T07:56:53.398Z,100042.27
2023-02-16T07:57:57.593Z,100044.02
2023-02-16T07:59:01.726Z,100038.56
2023-02-16T08:00:05.844Z,100045.36
2023-02-16T08:01:09.983Z,100045.26
2023-02-16T08:02:14.371Z,100042.44
2023-02-16T08:03:19.216Z,100031.48
2023-02-16T08:04:23.659Z,100032.34
2023-02-16T08:05:27.785Z,100042.5
2023-02-16T08:06:31.938Z,100041.09
2023-02-16T08:07:36.267Z,100032.16
2023-02-16T08:08:40.459Z,100039.45
2023-02-16T08:09:44.593Z,100038.93
2023-02-16T08:10:48.717Z,100045.59
2023-02-16T08:11:52.880Z,100045.87
2023-02-16T08:12:57.010Z,100039.59
2023-02-16T08:14:01.190Z,100040.45
2023-02-16T08:15:05.325Z,100044.05
2023-02-16T08:16:09.694Z,100036.35
2023-02-16T08:17:13.938Z,100046.28
2023-02-16T08:18:18.078Z,100041.95
2023-02-16T08:19:22.228Z,100048.3
2023-02-16T08:21:02.594Z,100050.67
2023-02-16T08:22:07.990Z,100039.3
2023-02-16T08:23:12.151Z,100037.62
2023-02-16T08:24:16.290Z,100043.31
2023-02-16T08:25:20.495Z,100048.3
2023-02-16T08:26:24.603Z,100052.32
2023-02-16T08:27:28.724Z,100048.92
2023-02-16T08:28:32.832Z,100051.42
2023-02-16T08:29:36.966Z,100043.39
2023-02-16T08:30:41.120Z,100046.72
2023-02-16T08:31:45.504Z,100045.38
2023-02-16T08:32:49.888Z,100051.25
2023-02-16T08:33:54.053Z,100048.67
2023-02-16T08:34:58.226Z,100044.07
2023-02-16T08:36:02.576Z,100040.98
2023-02-16T08:37:07.271Z,100044.73
2023-02-16T08:38:11.395Z,100044.73
2023-02-16T08:39:15.525Z,100042.05
2023-02-16T08:40:19.649Z,100044.22
2023-02-16T08:41:23.806Z,100034.38
2023-02-16T08:42:27.971Z,100041.73
2023-02-16T08:43:32.099Z,100032.84
2023-02-16T08:44:36.363Z,100034.94
2023-02-16T08:45:40.624Z,100023.5
2023-02-16T08:46:44.808Z,100026.01
2023-02-16T08:47:49.087Z,100023.84
2023-02-16T08:48:55.932Z,100032.3
2023-02-16T08:50:00.134Z,100034.63
2023-02-16T08:51:04.288Z,100032.12
2023-02-16T08:52:08.448Z,100030.78
2023-02-16T08:53:12.655Z,100038.3
2023-02-16T08:54:16.828Z,100030.27
2023-02-16T08:55:21.000Z,100024.77
2023-02-16T08:56:25.132Z,100035.21
2023-02-16T08:57:29.286Z,100029.27
2023-02-16T08:58:33.424Z,100032.6
2023-02-16T08:59:37.557Z,100034.05
2023-02-16T09:00:41.684Z,100027.27
2023-02-16T09:01:45.878Z,100030.85
2023-02-16T09:02:50.115Z,100033.05
2023-02-16T09:03:54.317Z,100027.69
2023-02-16T09:04:58.450Z,100028.59
2023-02-16T09:06:03.265Z,100029.52
2023-02-16T09:07:08.042Z,100031.36
2023-02-16T09:08:12.413Z,100032.05
2023-02-16T09:09:16.557Z,100032.7
2023-02-16T09:10:21.387Z,100031.63
2023-02-16T09:11:25.613Z,100033.94
2023-02-16T09:12:29.784Z,100033.05
2023-02-16T09:13:33.951Z,100031.2
2023-02-16T09:14:38.127Z,100034.8
2023-02-16T09:15:42.264Z,100030.27
2023-02-16T09:16:47.009Z,100036.45
2023-02-16T09:17:51.320Z,100024.59
2023-02-16T09:18:55.484Z,100027.08
2023-02-16T09:19:59.655Z,100020.75
2023-02-16T09:21:03.806Z,100030.09
2023-02-16T09:22:07.991Z,100020.75
2023-02-16T09:23:12.141Z,100026.59
2023-02-16T09:24:16.389Z,100022.58
2023-02-16T09:25:20.737Z,100022.48
2023-02-16T09:26:24.920Z,100014.38
2023-02-16T09:27:29.044Z,100018.56
2023-02-16T09:28:33.176Z,100015.12
2023-02-16T09:29:37.635Z,100019.14
2023-02-16T09:30:41.901Z,100015.78
2023-02-16T09:31:46.252Z,100018.46
2023-02-16T09:32:50.447Z,100019.8
2023-02-16T09:33:54.597Z,100018.97
2023-02-16T09:34:58.755Z,100015.37
2023-02-16T09:36:03.509Z,100022.3
2023-02-16T09:37:08.214Z,100012.2
2023-02-16T09:38:12.352Z,100011.77
2023-02-16T09:39:16.556Z,100009.4
2023-02-16T09:40:20.745Z,100011.66
2023-02-16T09:41:25.027Z,100001.08
2023-02-16T09:42:29.154Z,100001.39
2023-02-16T09:43:33.283Z,100004.48
2023-02-16T09:44:37.503Z,100007.16
2023-02-16T09:45:41.861Z,100008.57
2023-02-16T09:46:46.074Z,100001.77
2023-02-16T09:47:50.230Z,100004.92
2023-02-16T09:48:54.387Z,100003.63
2023-02-16T09:49:58.538Z,100010.02
2023-02-16T09:51:02.696Z,100002.83
2023-02-16T09:52:06.930Z,100007.23
2023-02-16T09:53:11.080Z,100011.66
2023-02-16T09:54:15.228Z,100008.5
2023-02-16T09:55:19.443Z,99998.81
2023-02-16T09:56:23.700Z,100013.86
2023-02-16T09:57:27.822Z,100010.25
2023-02-16T09:58:31.969Z,99967.31
2023-02-16T09:59:36.126Z,100002.22
2023-02-16T10:00:40.319Z,99992.91
2023-02-16T10:01:44.589Z,100012.94
2023-02-16T10:02:48.902Z,100019.22
2023-02-16T10:03:53.122Z,100020.55
2023-02-16T10:04:57.281Z,100015.68
2023-02-16T10:06:01.469Z,100011.59
2023-02-16T10:07:06.020Z,100008.67
2023-02-16T10:08:10.314Z,100002.56
2023-02-16T10:09:14.480Z,100008.98
2023-02-16T10:10:20.640Z,100012.52
2023-02-16T10:11:24.801Z,100011.35
2023-02-16T10:12:28.931Z,100014.75
2023-02-16T10:13:33.057Z,100008.06
2023-02-16T10:14:37.209Z,100007.33
2023-02-16T10:15:41.461Z,100007.09
2023-02-16T10:16:45.656Z,100009.84
2023-02-16T10:17:49.947Z,100007.06
2023-02-16T10:18:54.099Z,100007.16
2023-02-16T10:19:58.211Z,100008.33
2023-02-16T10:21:02.571Z,100005.99
2023-02-16T10:22:07.487Z,99996.45
2023-02-16T10:23:11.607Z,100005.06
2023-02-16T10:24:15.739Z,99996.66
2023-02-16T10:25:19.877Z,99997.79
2023-02-16T10:26:24.042Z,100004.14
2023-02-16T10:27:28.160Z,100006.72
2023-02-16T10:28:32.298Z,100008.5
2023-02-16T10:29:36.437Z,100008.06
2023-02-16T10:30:40.591Z,100008.16
2023-02-16T10:31:45.131Z,100007.64
2023-02-16T10:32:49.438Z,100003.83
2023-02-16T10:33:53.563Z,100006.3
2023-02-16T10:34:57.673Z,100001.36
2023-02-16T10:36:01.838Z,100005.72
2023-02-16T10:37:05.976Z,100007.81
2023-02-16T10:38:10.159Z,99998.38
2023-02-16T10:39:14.308Z,100008.3
2023-02-16T10:40:18.598Z,100006.83
2023-02-16T10:41:25.962Z,100005.97
2023-02-16T10:42:30.078Z,100002.19
2023-02-16T10:43:34.236Z,99995.22
2023-02-16T10:44:38.718Z,99996.97
2023-02-16T10:45:42.898Z,99983.23
2023-02-16T10:46:49.584Z,99993.95
2023-02-16T10:47:53.677Z,99996.77
2023-02-16T10:48:57.795Z,100004.34
2023-02-16T10:50:01.907Z,99986.94
2023-02-16T10:51:06.955Z,99998.19
2023-02-16T10:52:11.120Z,99987.47
2023-02-16T10:53:15.222Z,99992.11
2023-02-16T10:54:19.368Z,99978.3
2023-02-16T10:55:23.472Z,99978.77
2023-02-16T10:56:27.587Z,99982.75
2023-02-16T10:57:31.702Z,99983.16
2023-02-16T10:58:35.824Z,99980.44
2023-02-16T10:59:39.986Z,99971.98
2023-02-16T11:00:44.126Z,99969.8
2023-02-16T11:01:48.374Z,99976.05
2023-02-16T11:02:52.777Z,99971.89
2023-02-16T11:03:56.909Z,99969.86
2023-02-16T11:05:01.064Z,99967.02
2023-02-16T11:06:05.871Z,99968.83
2023-02-16T11:07:10.146Z,99963.39
2023-02-16T11:08:14.291Z,99969.58
2023-02-16T11:09:18.415Z,99960.48
2023-02-16T11:10:22.540Z,99955.64
2023-02-16T11:11:26.676Z,99955.81
2023-02-16T11:12:30.887Z,99963.57
2023-02-16T11:13:35.028Z,99957.28
2023-02-16T11:14:39.168Z,99951.45
2023-02-16T11:15:43.358Z,99958.96
2023-02-16T11:16:47.498Z,99946.05
2023-02-16T11:17:51.616Z,99946.62
2023-02-16T11:18:55.834Z,99951.36
2023-02-16T11:20:02.783Z,99947.58
2023-02-16T11:21:07.424Z,99939.46
2023-02-16T11:22:11.671Z,99940.7
2023-02-16T11:23:15.801Z,99944.84
2023-02-16T11:24:19.898Z,99945.72
2023-02-16T11:25:24.021Z,99946.36
2023-02-16T11:26:28.166Z,99946.88
2023-02-16T11:27:32.283Z,99936.88
2023-02-16T11:28:36.416Z,99933.6
2023-02-16T11:29:40.534Z,99935.3
2023-02-16T11:30:44.736Z,99936.62
2023-02-16T11:31:49.272Z,99940.72
2023-02-16T11:32:53.564Z,99930.27
2023-02-16T11:33:57.676Z,99933.55
2023-02-16T11:35:01.776Z,99931.05
2023-02-16T11:36:05.896Z,99928.57
2023-02-16T11:37:10.052Z,99926.78
2023-02-16T11:38:14.161Z,99920.06
2023-02-16T11:39:18.258Z,99920.47
2023-02-16T11:40:22.378Z,99920.08
2023-02-16T11:41:26.487Z,99911.97
2023-02-16T11:42:30.582Z,99916.35
2023-02-16T11:43:34.693Z,99916.28
2023-02-16T11:44:38.794Z,99906.02
2023-02-16T11:45:42.936Z,99920.77
2023-02-16T11:46:47.206Z,99915.53
2023-02-16T11:47:51.349Z,99905.91
2023-02-16T11:48:55.444Z,99908
2023-02-16T11:49:59.538Z,99911.81
2023-02-16T11:51:04.233Z,99905.22
2023-02-16T11:52:09.047Z,99911.33
2023-02-16T11:53:13.268Z,99904.23
2023-02-16T11:54:17.386Z,99904.39
2023-02-16T11:55:21.506Z,99900.78
2023-02-16T11:56:25.587Z,99902.17
2023-02-16T11:57:29.704Z,99895.55
2023-02-16T11:58:33.813Z,99892.38
2023-02-16T11:59:37.911Z,99898.8
2023-02-16T12:00:42.087Z,99888.36
2023-02-16T12:01:46.225Z,99885.46
2023-02-16T12:02:50.377Z,99888.66
2023-02-16T12:03:54.619Z,99883.77
2023-02-16T12:04:59.016Z,99886.09
2023-02-16T12:06:03.128Z,99869.02
2023-02-16T12:07:07.260Z,99871.83
2023-02-16T12:08:11.362Z,99874.38
2023-02-16T12:09:15.482Z,99880.49
2023-02-16T12:10:19.574Z,99877.58
2023-02-16T12:11:23.667Z,99874.61
2023-02-16T12:12:27.819Z,99870.17
2023-02-16T12:13:32.007Z,99876.88
2023-02-16T12:14:37.655Z,99878.97
2023-02-16T12:15:41.816Z,99862.19
2023-02-16T12:16:46.097Z,99873.68
2023-02-16T12:17:50.335Z,99869.71
2023-02-16T12:18:54.460Z,99867.85